createdAt,value
2018-07-14T00:00:11.361Z,99.90
2018-07-14T00:02:39.481Z,99.90
2018-07-14T00:05:07.637Z,99.90
2018-07-14T00:07:35.778Z,99.90
2018-07-14T00:10:04.019Z,99.90
2018-07-14T00:12:32.070Z,99.90
2018-07-14T00:15:00.224Z,99.90
2018-07-14T00:17:28.345Z,99.90
2018-07-14T00:19:56.481Z,99.90
2018-07-14T00:22:24.608Z,99.90
2018-07-14T00:24:52.745Z,99.90
2018-07-14T00:29:48.775Z,99.90
2018-07-14T00:32:16.918Z,99.90
2018-07-14T00:34:45.053Z,99.90
2018-07-14T00:37:13.189Z,99.90
2018-07-14T00:39:41.326Z,99.90
2018-07-14T00:42:09.443Z,99.90
2018-07-14T00:44:37.565Z,99.90
2018-07-14T00:47:05.695Z,99.90
2018-07-14T00:52:01.838Z,99.90
2018-07-14T00:54:29.982Z,99.90
2018-07-14T00:56:58.139Z,99.90
2018-07-14T00:59:26.289Z,99.90
2018-07-14T01:01:54.414Z,99.90
2018-07-14T01:04:22.550Z,99.90
2018-07-14T01:06:50.827Z,99.90
2018-07-14T01:09:18.957Z,99.90
2018-07-14T01:11:47.082Z,99.90
2018-07-14T01:14:15.249Z,99.90
2018-07-14T01:16:43.381Z,99.90
2018-07-14T01:19:11.514Z,99.90
2018-07-14T01:21:39.662Z,99.90
2018-07-14T01:24:07.793Z,99.90
2018-07-14T01:26:35.953Z,99.90
2018-07-14T01:29:04.082Z,99.90
2018-07-14T01:31:32.236Z,99.90
2018-07-14T01:34:00.355Z,99.90
2018-07-14T01:36:28.535Z,99.90
2018-07-14T01:38:56.602Z,99.90
2018-07-14T01:41:24.738Z,99.90
2018-07-14T01:43:52.881Z,99.90
2018-07-14T01:46:21.017Z,99.90
2018-07-14T01:48:49.158Z,99.90
2018-07-14T01:51:17.268Z,99.90
2018-07-14T01:53:45.394Z,99.90
2018-07-14T01:56:13.513Z,99.90
2018-07-14T01:58:41.670Z,99.90
2018-07-14T02:01:09.810Z,99.90
2018-07-14T02:03:37.975Z,99.90
2018-07-14T02:06:06.118Z,99.90
2018-07-14T02:11:02.220Z,99.90
2018-07-14T02:13:30.346Z,99.90
2018-07-14T02:15:58.483Z,99.90
2018-07-14T02:18:26.605Z,99.90
2018-07-14T02:20:54.717Z,99.90
2018-07-14T02:23:22.870Z,99.90
2018-07-14T02:25:51.017Z,99.90
2018-07-14T02:28:19.135Z,99.90
2018-07-14T02:30:47.270Z,99.90
2018-07-14T02:33:15.426Z,99.90
2018-07-14T02:35:43.558Z,99.90
2018-07-14T02:38:11.699Z,99.90
2018-07-14T02:40:39.862Z,99.90
2018-07-14T02:43:07.989Z,99.90
2018-07-14T02:45:36.141Z,99.90
2018-07-14T02:48:04.394Z,99.90
2018-07-14T02:50:32.538Z,99.90
2018-07-14T02:53:00.674Z,99.90
2018-07-14T02:55:28.814Z,99.90
2018-07-14T02:57:56.956Z,99.90
2018-07-14T03:00:25.077Z,99.90
2018-07-14T03:02:53.214Z,99.90
2018-07-14T03:05:21.359Z,99.90
2018-07-14T03:07:49.486Z,99.90
2018-07-14T03:10:17.610Z,99.90
2018-07-14T03:12:45.796Z,99.90
2018-07-14T03:15:13.874Z,99.90
2018-07-14T03:17:42.006Z,99.90
2018-07-14T03:20:10.116Z,99.90
2018-07-14T03:22:38.233Z,99.90
2018-07-14T03:25:06.362Z,99.90
2018-07-14T03:27:34.498Z,99.90
2018-07-14T03:32:30.648Z,99.90
2018-07-14T03:37:26.749Z,99.90
2018-07-14T03:39:54.869Z,99.90
2018-07-14T03:42:22.991Z,99.90
2018-07-14T03:44:51.234Z,99.90
2018-07-14T03:47:19.366Z,99.90
2018-07-14T03:49:47.530Z,99.90
2018-07-14T03:52:15.658Z,99.90
2018-07-14T03:54:43.785Z,99.90
2018-07-14T03:57:11.929Z,99.90
2018-07-14T03:59:40.054Z,99.90
2018-07-14T04:02:08.221Z,99.90
2018-07-14T04:04:36.329Z,99.90
2018-07-14T04:07:04.433Z,99.90
2018-07-14T04:09:32.657Z,99.90
2018-07-14T04:12:00.779Z,99.90
2018-07-14T04:14:28.911Z,99.90
2018-07-14T04:16:57.022Z,99.90
2018-07-14T04:19:25.155Z,99.90
2018-07-14T04:21:53.253Z,99.90
2018-07-14T04:24:21.391Z,99.90
2018-07-14T04:26:49.495Z,99.90
2018-07-14T04:29:17.618Z,99.90
2018-07-14T04:31:45.740Z,99.90
2018-07-14T04:34:13.877Z,99.90
2018-07-14T04:36:41.991Z,99.90
2018-07-14T04:39:10.105Z,99.90
2018-07-14T04:41:38.221Z,99.90
2018-07-14T04:44:06.376Z,99.90
2018-07-14T04:46:34.514Z,99.90
2018-07-14T04:49:02.663Z,99.90
2018-07-14T04:51:30.784Z,99.90
2018-07-14T04:53:58.893Z,99.90
2018-07-14T04:56:27.027Z,99.90
2018-07-14T04:58:55.200Z,99.90
2018-07-14T05:01:23.302Z,99.90
2018-07-14T05:03:51.495Z,99.90
2018-07-14T05:06:19.664Z,99.90
2018-07-14T05:08:47.785Z,99.90
2018-07-14T05:11:15.898Z,99.90
2018-07-14T05:13:44.046Z,99.90
2018-07-14T05:16:12.166Z,99.90
2018-07-14T05:18:40.288Z,99.90
2018-07-14T05:21:09.524Z,99.90
2018-07-14T05:23:37.650Z,99.90
2018-07-14T05:26:05.810Z,99.90
2018-07-14T05:28:34.017Z,99.90
2018-07-14T05:31:02.071Z,99.90
2018-07-14T05:33:30.220Z,99.90
2018-07-14T05:35:58.359Z,99.90
2018-07-14T05:38:26.483Z,99.90
2018-07-14T05:40:54.803Z,99.90
2018-07-14T05:43:22.973Z,99.90
2018-07-14T05:45:51.112Z,99.90
2018-07-14T05:48:19.342Z,99.90
2018-07-14T05:50:47.538Z,99.90
2018-07-14T05:53:15.657Z,99.90
2018-07-14T05:55:43.845Z,99.90
2018-07-14T05:58:14.085Z,99.90
2018-07-14T06:00:42.222Z,99.90
2018-07-14T06:03:10.366Z,99.90
2018-07-14T06:05:38.525Z,99.90
2018-07-14T06:08:06.662Z,99.90
2018-07-14T06:10:34.817Z,99.90
2018-07-14T06:13:02.958Z,99.90
2018-07-14T06:15:31.146Z,99.90
2018-07-14T06:17:59.273Z,99.90
2018-07-14T06:20:27.404Z,99.90
2018-07-14T06:22:55.530Z,99.90
2018-07-14T06:25:23.677Z,99.90
2018-07-14T06:27:51.822Z,99.90
2018-07-14T06:30:19.973Z,99.90
2018-07-14T06:32:48.138Z,99.90
2018-07-14T06:35:16.253Z,99.90
2018-07-14T06:37:44.420Z,99.90
2018-07-14T06:40:12.759Z,99.90
2018-07-14T06:42:40.880Z,99.90
2018-07-14T06:45:09.002Z,99.90
2018-07-14T06:47:37.141Z,99.90
2018-07-14T06:50:05.278Z,99.90
2018-07-14T06:52:33.405Z,99.90
2018-07-14T06:55:01.533Z,99.90
2018-07-14T06:57:29.674Z,99.90
2018-07-14T06:59:57.797Z,99.90
2018-07-14T07:02:25.939Z,99.90
2018-07-14T07:04:54.081Z,99.90
2018-07-14T07:07:22.217Z,99.90
2018-07-14T07:12:18.249Z,99.90
2018-07-14T07:14:46.377Z,99.90
2018-07-14T07:17:14.501Z,99.90
2018-07-14T07:19:42.625Z,99.90
2018-07-14T07:22:10.748Z,99.90
2018-07-14T07:24:38.873Z,99.90
2018-07-14T07:27:06.997Z,99.90
2018-07-14T07:29:35.108Z,99.90
2018-07-14T07:32:03.231Z,99.90
2018-07-14T07:34:31.393Z,99.90
2018-07-14T07:36:59.478Z,99.90
2018-07-14T07:39:27.590Z,99.90
2018-07-14T07:41:55.702Z,99.90
2018-07-14T07:44:23.835Z,99.90
2018-07-14T07:46:51.952Z,99.90
2018-07-14T07:49:20.074Z,99.90
2018-07-14T07:51:48.229Z,99.90
2018-07-14T07:54:16.406Z,99.90
2018-07-14T07:56:44.743Z,99.90
2018-07-14T07:59:12.851Z,99.90
2018-07-14T08:01:40.970Z,99.90
2018-07-14T08:04:09.095Z,99.90
2018-07-14T08:06:37.219Z,99.90
2018-07-14T08:09:05.986Z,99.90
2018-07-14T08:11:34.099Z,99.90
2018-07-14T08:14:02.261Z,99.90
2018-07-14T08:16:30.388Z,99.90
2018-07-14T08:18:58.505Z,99.90
2018-07-14T08:21:26.617Z,99.90
2018-07-14T08:23:54.774Z,99.90
2018-07-14T08:26:23.213Z,99.90
2018-07-14T08:28:51.362Z,99.90
2018-07-14T08:31:19.494Z,99.90
2018-07-14T08:33:47.616Z,99.90
2018-07-14T08:36:15.744Z,99.90
2018-07-14T08:38:43.875Z,99.90
2018-07-14T08:41:12.016Z,99.90
2018-07-14T08:43:40.162Z,99.90
2018-07-14T08:46:08.301Z,99.90
2018-07-14T08:48:36.422Z,99.90
2018-07-14T08:51:04.601Z,99.90
2018-07-14T08:53:32.666Z,99.90
2018-07-14T08:56:00.834Z,99.90
2018-07-14T08:58:29.589Z,99.90
2018-07-14T09:00:59.093Z,99.90
2018-07-14T09:03:27.307Z,99.90
2018-07-14T09:05:56.152Z,99.90
2018-07-14T09:08:24.398Z,99.90
2018-07-14T09:10:52.523Z,99.90
2018-07-14T09:13:20.662Z,99.90
2018-07-14T09:15:48.799Z,99.90
2018-07-14T09:18:16.914Z,99.90
2018-07-14T09:20:45.040Z,99.90
2018-07-14T09:23:13.164Z,99.90
2018-07-14T09:25:41.284Z,99.90
2018-07-14T09:28:09.408Z,99.90
2018-07-14T09:30:37.549Z,99.90
2018-07-14T09:33:05.666Z,99.90
2018-07-14T09:35:33.838Z,99.90
2018-07-14T09:38:02.098Z,99.90
2018-07-14T09:40:30.104Z,99.90
2018-07-14T09:42:58.217Z,99.90
2018-07-14T09:45:26.363Z,99.90
2018-07-14T09:47:54.485Z,99.90
2018-07-14T09:50:22.625Z,99.90
2018-07-14T09:52:50.889Z,99.90
2018-07-14T09:55:19.034Z,99.00
2018-07-14T09:57:47.147Z,99.90
2018-07-14T10:00:20.602Z,99.90
2018-07-14T10:05:16.653Z,99.90
2018-07-14T10:07:44.807Z,97.50
2018-07-14T10:10:12.990Z,97.30
2018-07-14T10:12:41.245Z,95.70
2018-07-14T10:15:09.401Z,94.00
2018-07-14T10:17:37.824Z,92.90
2018-07-14T10:20:06.182Z,88.00
2018-07-14T10:22:34.353Z,91.70
2018-07-14T10:25:02.506Z,91.40
2018-07-14T10:27:30.648Z,90.80
2018-07-14T10:29:58.770Z,93.10
2018-07-14T10:32:26.890Z,93.40
2018-07-14T10:34:55.014Z,91.50
2018-07-14T10:37:23.175Z,86.50
2018-07-14T10:39:51.408Z,87.70
2018-07-14T10:42:19.604Z,85.90
2018-07-14T10:44:47.745Z,89.40
2018-07-14T10:47:15.950Z,86.10
2018-07-14T10:49:44.129Z,85.30
2018-07-14T10:52:12.313Z,82.40
2018-07-14T10:54:40.575Z,81.70
2018-07-14T10:57:08.764Z,85.70
2018-07-14T10:59:37.717Z,84.60
2018-07-14T11:02:06.068Z,81.70
2018-07-14T11:04:34.243Z,82.90
2018-07-14T11:07:02.350Z,84.40
2018-07-14T11:09:30.570Z,83.50
2018-07-14T11:11:58.700Z,80.60
2018-07-14T11:14:26.825Z,81.50
2018-07-14T11:16:55.352Z,78.50
2018-07-14T11:19:23.535Z,79.90
2018-07-14T11:21:51.759Z,80.90
2018-07-14T11:24:19.978Z,79.40
2018-07-14T11:26:48.123Z,77.00
2018-07-14T11:29:16.278Z,75.60
2018-07-14T11:34:12.379Z,77.90
2018-07-14T11:36:40.516Z,70.40
2018-07-14T11:39:08.797Z,72.60
2018-07-14T11:41:36.960Z,74.90
2018-07-14T11:44:05.191Z,79.50
2018-07-14T11:46:37.010Z,80.80
2018-07-14T11:49:05.801Z,84.90
2018-07-14T11:51:33.932Z,90.00
2018-07-14T11:54:02.105Z,91.70
2018-07-14T11:56:30.257Z,92.20
2018-07-14T11:58:58.385Z,92.30
2018-07-14T12:01:27.060Z,92.50
2018-07-14T12:03:55.327Z,93.50
2018-07-14T12:06:23.848Z,93.90
2018-07-14T12:08:52.190Z,93.40
2018-07-14T12:11:20.323Z,93.30
2018-07-14T12:16:16.488Z,93.60
2018-07-14T12:18:45.738Z,93.30
2018-07-14T12:21:14.009Z,93.90
2018-07-14T12:23:42.310Z,93.20
2018-07-14T12:26:10.480Z,91.10
2018-07-14T12:28:38.703Z,91.80
2018-07-14T12:31:06.844Z,90.40
2018-07-14T12:33:35.001Z,91.80
2018-07-14T12:36:03.153Z,94.70
2018-07-14T12:38:31.321Z,92.30
2018-07-14T12:40:59.466Z,92.30
2018-07-14T12:43:27.755Z,92.30
2018-07-14T12:45:55.814Z,91.30
2018-07-14T12:48:23.962Z,91.70
2018-07-14T12:53:20.010Z,85.80
2018-07-14T12:55:48.146Z,87.30
2018-07-14T12:58:16.345Z,86.80
2018-07-14T13:00:45.063Z,85.00
2018-07-14T13:03:13.189Z,85.10
2018-07-14T13:08:09.744Z,86.10
2018-07-14T13:15:34.159Z,86.10
2018-07-14T13:18:02.339Z,85.40
2018-07-14T13:20:31.779Z,84.90
2018-07-14T13:22:59.907Z,83.60
2018-07-14T13:25:28.714Z,81.00
2018-07-14T13:27:56.939Z,84.70
2018-07-14T13:30:25.110Z,82.20
2018-07-14T13:32:53.704Z,83.70
2018-07-14T13:35:21.842Z,85.90
2018-07-14T13:37:50.983Z,81.10
2018-07-14T13:40:19.286Z,83.60
2018-07-14T13:42:47.999Z,84.90
2018-07-14T13:45:17.132Z,84.60
2018-07-14T13:47:46.002Z,82.60
2018-07-14T13:50:14.162Z,83.10
2018-07-14T13:52:42.890Z,88.10
2018-07-14T13:55:11.049Z,87.60
2018-07-14T13:57:39.847Z,86.70
2018-07-14T14:00:08.581Z,87.90
2018-07-14T14:02:36.848Z,84.60
2018-07-14T14:05:05.483Z,82.60
2018-07-14T14:07:33.665Z,82.70
2018-07-14T14:10:02.320Z,85.70
2018-07-14T14:12:30.577Z,84.20
2018-07-14T14:14:59.080Z,84.90
2018-07-14T14:17:27.427Z,81.90
2018-07-14T14:19:55.619Z,83.00
2018-07-14T14:22:24.089Z,82.80
2018-07-14T14:24:52.225Z,82.60
2018-07-14T14:29:48.889Z,75.10
2018-07-14T14:32:17.094Z,78.50
2018-07-14T14:34:45.381Z,78.70
2018-07-14T14:37:13.514Z,79.00
2018-07-14T14:39:42.429Z,77.40
2018-07-14T14:42:10.675Z,79.50
2018-07-14T14:44:39.216Z,77.90
2018-07-14T14:47:07.446Z,81.30
2018-07-14T14:49:35.582Z,83.80
2018-07-14T14:52:03.743Z,85.20
2018-07-14T14:54:31.913Z,86.50
2018-07-14T14:57:00.313Z,88.90
2018-07-14T14:59:28.683Z,88.70
2018-07-14T15:01:56.982Z,89.60
2018-07-14T15:06:53.094Z,90.60
2018-07-14T15:09:21.332Z,90.80
2018-07-14T15:11:49.381Z,91.30
2018-07-14T15:14:17.541Z,92.00
2018-07-14T15:19:13.594Z,92.80
2018-07-14T15:21:41.782Z,93.00
2018-07-14T15:24:09.966Z,93.60
2018-07-14T15:26:38.114Z,93.20
2018-07-14T15:29:06.271Z,93.70
2018-07-14T15:34:02.433Z,93.70
2018-07-14T15:36:30.750Z,94.00
2018-07-14T15:38:58.893Z,94.50
2018-07-14T15:41:27.054Z,94.70
2018-07-14T15:43:55.180Z,94.50
2018-07-14T15:46:23.371Z,95.30
2018-07-14T15:48:51.518Z,95.60
2018-07-14T15:51:19.679Z,95.10
2018-07-14T15:53:47.865Z,95.10
2018-07-14T15:56:16.032Z,94.90
2018-07-14T15:58:44.191Z,95.10
2018-07-14T16:01:12.326Z,94.70
2018-07-14T16:03:40.491Z,94.60
2018-07-14T16:06:08.617Z,93.60
2018-07-14T16:08:36.766Z,94.10
2018-07-14T16:11:04.940Z,94.30
2018-07-14T16:13:33.062Z,94.60
2018-07-14T16:16:01.204Z,95.10
2018-07-14T16:18:29.376Z,95.10
2018-07-14T16:20:57.501Z,94.20
2018-07-14T16:23:25.677Z,95.20
2018-07-14T16:28:21.757Z,95.50
2018-07-14T16:30:49.868Z,96.90
2018-07-14T16:33:18.008Z,96.10
2018-07-14T16:35:46.171Z,96.70
2018-07-14T16:38:14.277Z,95.70
2018-07-14T16:40:42.505Z,97.40
2018-07-14T16:43:10.621Z,97.20
2018-07-14T16:45:38.768Z,96.90
2018-07-14T16:48:07.463Z,97.00
2018-07-14T16:50:35.640Z,97.80
2018-07-14T16:53:03.779Z,97.20
2018-07-14T16:55:31.938Z,97.20
2018-07-14T16:58:00.037Z,97.80
2018-07-14T17:00:28.155Z,96.80
2018-07-14T17:02:56.338Z,97.20
2018-07-14T17:05:24.472Z,97.70
2018-07-14T17:07:52.897Z,99.40
2018-07-14T17:12:48.964Z,99.90
2018-07-14T17:15:17.343Z,99.90
2018-07-14T17:17:45.535Z,99.90
2018-07-14T17:20:13.670Z,99.90
2018-07-14T17:22:41.789Z,99.90
2018-07-14T17:25:09.933Z,99.90
2018-07-14T17:27:38.050Z,99.90
2018-07-14T17:30:06.181Z,99.90
2018-07-14T17:32:34.348Z,99.90
2018-07-14T17:35:02.493Z,99.90
2018-07-14T17:37:30.622Z,99.90
2018-07-14T17:39:58.767Z,99.90
2018-07-14T17:42:26.944Z,99.90
2018-07-14T17:44:55.111Z,99.90
2018-07-14T17:47:23.243Z,99.90
2018-07-14T17:49:51.364Z,99.90
2018-07-14T17:52:19.493Z,99.90
2018-07-14T17:54:47.662Z,99.90
2018-07-14T17:57:16.609Z,99.90
2018-07-14T17:59:44.849Z,99.90
2018-07-14T18:02:13.020Z,99.90
2018-07-14T18:07:09.666Z,99.90
2018-07-14T18:09:37.802Z,99.90
2018-07-14T18:12:06.100Z,99.90
2018-07-14T18:14:34.241Z,99.90
2018-07-14T18:17:02.393Z,99.90
2018-07-14T18:19:30.561Z,99.90
2018-07-14T18:21:58.781Z,99.90
2018-07-14T18:24:26.949Z,99.90
2018-07-14T18:26:55.108Z,99.90
2018-07-14T18:29:23.281Z,99.90
2018-07-14T18:31:51.445Z,99.90
2018-07-14T18:34:19.668Z,99.90
2018-07-14T18:36:47.911Z,99.90
2018-07-14T18:39:16.086Z,99.90
2018-07-14T18:41:44.489Z,99.90
2018-07-14T18:44:12.659Z,99.90
2018-07-14T18:46:40.826Z,99.90
2018-07-14T18:49:08.993Z,99.90
2018-07-14T18:51:37.226Z,99.90
2018-07-14T18:54:05.458Z,99.90
2018-07-14T18:56:33.621Z,99.90
2018-07-14T18:59:01.790Z,99.90
2018-07-14T19:01:29.969Z,99.90
2018-07-14T19:04:00.612Z,99.90
2018-07-14T19:06:28.953Z,99.90
2018-07-14T19:11:25.005Z,99.90
2018-07-14T19:13:53.169Z,99.90
2018-07-14T19:16:21.755Z,99.90
2018-07-14T19:18:49.921Z,99.90
2018-07-14T19:21:18.098Z,99.90
2018-07-14T19:23:46.260Z,99.90
2018-07-14T19:26:14.542Z,99.90
2018-07-14T19:28:42.637Z,99.90
2018-07-14T19:31:10.805Z,99.90
2018-07-14T19:33:38.997Z,99.90
2018-07-14T19:38:35.124Z,99.90
2018-07-14T19:41:03.347Z,99.90
2018-07-14T19:43:31.524Z,99.90
2018-07-14T19:46:00.157Z,99.90
2018-07-14T19:48:28.299Z,99.90
2018-07-14T19:50:56.466Z,99.90
2018-07-14T19:53:24.574Z,99.90
2018-07-14T19:55:52.799Z,99.90
2018-07-14T19:58:20.877Z,99.90
2018-07-14T20:00:49.015Z,99.90
2018-07-14T20:03:17.145Z,99.90
2018-07-14T20:05:45.627Z,99.90
2018-07-14T20:08:13.770Z,99.90
2018-07-14T20:10:41.925Z,99.90
2018-07-14T20:13:10.073Z,99.90
2018-07-14T20:15:38.292Z,99.90
2018-07-14T20:18:06.637Z,99.90
2018-07-14T20:20:34.796Z,99.90
2018-07-14T20:23:02.939Z,99.90
2018-07-14T20:25:31.279Z,99.90
2018-07-14T20:27:59.413Z,99.90
2018-07-14T20:30:27.681Z,99.90
2018-07-14T20:32:55.954Z,99.90
2018-07-14T20:35:24.582Z,99.90
2018-07-14T20:37:52.717Z,99.90
2018-07-14T20:40:20.852Z,99.90
2018-07-14T20:42:49.002Z,99.90
2018-07-14T20:45:17.143Z,99.90
2018-07-14T20:47:45.273Z,99.90
2018-07-14T20:50:13.428Z,99.90
2018-07-14T20:52:42.412Z,99.90
2018-07-14T20:55:10.505Z,99.90
2018-07-14T20:57:38.663Z,99.90
2018-07-14T21:00:06.811Z,99.90
2018-07-14T21:02:34.957Z,99.90
2018-07-14T21:05:03.121Z,99.90
2018-07-14T21:07:31.312Z,99.90
2018-07-14T21:09:59.446Z,99.90
2018-07-14T21:12:27.657Z,99.90
2018-07-14T21:14:55.725Z,99.90
2018-07-14T21:17:23.861Z,99.90
2018-07-14T21:19:52.010Z,99.90
2018-07-14T21:22:20.131Z,99.90
2018-07-14T21:24:48.274Z,99.90
2018-07-14T21:27:16.413Z,99.90
2018-07-14T21:29:44.548Z,99.90
2018-07-14T21:32:12.698Z,99.90
2018-07-14T21:34:40.845Z,99.90
2018-07-14T21:37:08.977Z,99.90
2018-07-14T21:39:37.101Z,99.90
2018-07-14T21:42:05.263Z,99.90
2018-07-14T21:44:33.442Z,99.90
2018-07-14T21:47:01.569Z,99.90
2018-07-14T21:49:29.702Z,99.90
2018-07-14T21:51:57.845Z,99.90
2018-07-14T21:54:26.010Z,99.90
2018-07-14T21:56:54.154Z,99.90
2018-07-14T21:59:22.282Z,99.90
2018-07-14T22:01:51.115Z,99.90
2018-07-14T22:04:20.088Z,99.90
2018-07-14T22:06:48.305Z,99.90
2018-07-14T22:09:16.441Z,99.90
2018-07-14T22:11:44.582Z,99.90
2018-07-14T22:14:12.733Z,99.90
2018-07-14T22:16:40.865Z,99.90
2018-07-14T22:19:09.041Z,99.90
2018-07-14T22:21:37.193Z,99.90
2018-07-14T22:24:05.429Z,99.90
2018-07-14T22:26:33.566Z,99.90
2018-07-14T22:29:01.690Z,99.90
2018-07-14T22:31:29.841Z,99.90
2018-07-14T22:33:57.977Z,99.90
2018-07-14T22:36:26.109Z,99.90
2018-07-14T22:38:54.242Z,99.90
2018-07-14T22:41:22.394Z,99.90
2018-07-14T22:43:50.557Z,99.90
2018-07-14T22:46:18.692Z,99.90
2018-07-14T22:48:46.817Z,99.90
2018-07-14T22:51:14.946Z,99.90
2018-07-14T22:53:43.104Z,99.90
2018-07-14T22:56:11.219Z,99.90
2018-07-14T22:58:39.368Z,99.90
2018-07-14T23:01:07.526Z,99.90
2018-07-14T23:03:35.646Z,99.90
2018-07-14T23:06:03.786Z,99.90
2018-07-14T23:08:31.941Z,99.90
2018-07-14T23:11:00.069Z,99.90
2018-07-14T23:13:28.205Z,99.90
2018-07-14T23:15:56.364Z,99.90
2018-07-14T23:18:24.494Z,99.90
2018-07-14T23:20:52.773Z,99.90
2018-07-14T23:23:20.909Z,99.90
2018-07-14T23:25:49.067Z,99.90
2018-07-14T23:28:17.213Z,99.90
2018-07-14T23:30:45.350Z,99.90
2018-07-14T23:33:13.502Z,99.90
2018-07-14T23:35:41.633Z,99.90
2018-07-14T23:38:09.768Z,99.90
2018-07-14T23:40:41.285Z,99.90
2018-07-14T23:43:09.428Z,99.90
2018-07-14T23:45:37.561Z,99.90
2018-07-14T23:48:05.773Z,99.90
2018-07-14T23:50:33.909Z,99.90
2018-07-14T23:53:02.058Z,99.90
2018-07-14T23:55:30.200Z,99.90
2018-07-14T23:57:58.324Z,99.90
